sensor_id;sensor_type;location;lat;lon;timestamp;pressure;altitude;pressure_sealevel;temperature;humidity
14269;BME280;7218;51.480;7.006;2023-03-01T00:01:30;102083.22;;;2.87;65.81
14269;BME280;7218;51.480;7.006;2023-03-01T00:03:57;102085.63;;;2.84;65.93
14269;BME280;7218;51.480;7.006;2023-03-01T00:06:25;102081.34;;;2.83;65.85
14269;BME280;7218;51.480;7.006;2023-03-01T00:08:52;102078.69;;;2.82;65.99
14269;BME280;7218;51.480;7.006;2023-03-01T00:11:22;102085.59;;;2.83;65.99
14269;BME280;7218;51.480;7.006;2023-03-01T00:13:51;102081.44;;;2.86;66.40
14269;BME280;7218;51.480;7.006;2023-03-01T00:16:20;102084.28;;;2.92;65.67
14269;BME280;7218;51.480;7.006;2023-03-01T00:18:47;102079.38;;;2.78;65.89
14269;BME280;7218;51.480;7.006;2023-03-01T00:21:14;102084.66;;;2.81;65.79
14269;BME280;7218;51.480;7.006;2023-03-01T00:23:40;102075.31;;;2.83;66.27
14269;BME280;7218;51.480;7.006;2023-03-01T00:26:08;102070.84;;;2.79;66.14
14269;BME280;7218;51.480;7.006;2023-03-01T00:28:36;102062.09;;;2.75;65.98
14269;BME280;7218;51.480;7.006;2023-03-01T00:31:04;102061.16;;;2.73;66.32
14269;BME280;7218;51.480;7.006;2023-03-01T00:33:30;102070.41;;;2.68;66.37
14269;BME280;7218;51.480;7.006;2023-03-01T00:35:57;102065.81;;;2.61;66.34
14269;BME280;7218;51.480;7.006;2023-03-01T00:38:24;102065.06;;;2.64;66.18
14269;BME280;7218;51.480;7.006;2023-03-01T00:40:51;102054.69;;;2.62;66.89
14269;BME280;7218;51.480;7.006;2023-03-01T00:43:17;102058.84;;;2.58;66.26
14269;BME280;7218;51.480;7.006;2023-03-01T00:45:45;102058.16;;;2.63;66.64
14269;BME280;7218;51.480;7.006;2023-03-01T00:48:13;102054.44;;;2.56;66.75
14269;BME280;7218;51.480;7.006;2023-03-01T00:50:39;102049.88;;;2.49;67.34
14269;BME280;7218;51.480;7.006;2023-03-01T00:53:05;102047.34;;;2.50;67.11
14269;BME280;7218;51.480;7.006;2023-03-01T00:55:32;102048.38;;;2.35;68.17
14269;BME280;7218;51.480;7.006;2023-03-01T00:57:58;102041.81;;;2.41;68.17
14269;BME280;7218;51.480;7.006;2023-03-01T01:00:25;102047.72;;;2.39;67.95
14269;BME280;7218;51.480;7.006;2023-03-01T01:02:54;102041.19;;;2.47;67.44
14269;BME280;7218;51.480;7.006;2023-03-01T01:05:20;102043.38;;;2.38;67.81
14269;BME280;7218;51.480;7.006;2023-03-01T01:07:47;102039.66;;;2.31;68.52
14269;BME280;7218;51.480;7.006;2023-03-01T01:10:14;102039.94;;;2.37;68.05
14269;BME280;7218;51.480;7.006;2023-03-01T01:12:45;102033.63;;;2.31;68.43
14269;BME280;7218;51.480;7.006;2023-03-01T01:15:12;102035.75;;;2.20;68.79
14269;BME280;7218;51.480;7.006;2023-03-01T01:17:41;102027.22;;;2.21;68.93
14269;BME280;7218;51.480;7.006;2023-03-01T01:20:11;102022.94;;;2.22;68.92
14269;BME280;7218;51.480;7.006;2023-03-01T01:22:37;102032.72;;;2.09;69.00
14269;BME280;7218;51.480;7.006;2023-03-01T01:25:04;102018.91;;;2.07;69.66
14269;BME280;7218;51.480;7.006;2023-03-01T01:27:31;102007.88;;;2.10;69.54
14269;BME280;7218;51.480;7.006;2023-03-01T01:29:57;102012.47;;;2.17;69.14
14269;BME280;7218;51.480;7.006;2023-03-01T01:32:24;102005.28;;;2.10;69.48
14269;BME280;7218;51.480;7.006;2023-03-01T01:34:50;101999.16;;;2.06;69.49
14269;BME280;7218;51.480;7.006;2023-03-01T01:37:18;101995.97;;;2.12;69.76
14269;BME280;7218;51.480;7.006;2023-03-01T01:39:44;101996.56;;;2.06;69.47
14269;BME280;7218;51.480;7.006;2023-03-01T01:42:13;102002.34;;;2.01;69.86
14269;BME280;7218;51.480;7.006;2023-03-01T01:44:45;102005.25;;;2.08;69.80
14269;BME280;7218;51.480;7.006;2023-03-01T01:47:14;102001.91;;;2.11;69.72
14269;BME280;7218;51.480;7.006;2023-03-01T01:49:44;101991.53;;;2.09;69.72
14269;BME280;7218;51.480;7.006;2023-03-01T01:52:14;101998.19;;;2.04;69.79
14269;BME280;7218;51.480;7.006;2023-03-01T01:54:46;101998.34;;;2.07;69.93
14269;BME280;7218;51.480;7.006;2023-03-01T01:57:16;102001.72;;;2.06;69.81
14269;BME280;7218;51.480;7.006;2023-03-01T01:59:49;102002.06;;;2.14;69.88
14269;BME280;7218;51.480;7.006;2023-03-01T02:02:17;102003.84;;;1.96;70.25
14269;BME280;7218;51.480;7.006;2023-03-01T02:04:46;102001.84;;;2.09;69.83
14269;BME280;7218;51.480;7.006;2023-03-01T02:07:16;102004.91;;;2.01;70.14
14269;BME280;7218;51.480;7.006;2023-03-01T02:09:46;102010.84;;;2.00;69.90
14269;BME280;7218;51.480;7.006;2023-03-01T02:12:14;101999.50;;;1.95;70.45
14269;BME280;7218;51.480;7.006;2023-03-01T02:14:41;101990.16;;;1.97;70.20
14269;BME280;7218;51.480;7.006;2023-03-01T02:17:07;101988.34;;;1.94;70.19
14269;BME280;7218;51.480;7.006;2023-03-01T02:19:44;101987.66;;;1.98;70.43
14269;BME280;7218;51.480;7.006;2023-03-01T02:22:20;101990.28;;;2.00;70.11
14269;BME280;7218;51.480;7.006;2023-03-01T02:24:57;101976.22;;;1.92;70.36
14269;BME280;7218;51.480;7.006;2023-03-01T02:27:34;101979.22;;;1.82;70.78
14269;BME280;7218;51.480;7.006;2023-03-01T02:30:05;101978.41;;;1.83;71.04
14269;BME280;7218;51.480;7.006;2023-03-01T02:32:33;101972.47;;;1.84;70.75
14269;BME280;7218;51.480;7.006;2023-03-01T02:34:59;101976.56;;;1.80;70.80
14269;BME280;7218;51.480;7.006;2023-03-01T02:37:26;101968.25;;;1.86;71.00
14269;BME280;7218;51.480;7.006;2023-03-01T02:39:55;101976.22;;;1.92;71.42
14269;BME280;7218;51.480;7.006;2023-03-01T02:42:26;101978.91;;;1.95;70.60
14269;BME280;7218;51.480;7.006;2023-03-01T02:44:54;101976.09;;;1.89;71.06
14269;BME280;7218;51.480;7.006;2023-03-01T02:47:22;101989.16;;;1.93;71.11
14269;BME280;7218;51.480;7.006;2023-03-01T02:49:49;101983.25;;;1.96;70.80
14269;BME280;7218;51.480;7.006;2023-03-01T02:52:33;101982.53;;;1.98;70.67
14269;BME280;7218;51.480;7.006;2023-03-01T02:55:05;101980.47;;;1.91;70.91
14269;BME280;7218;51.480;7.006;2023-03-01T02:57:34;101994.09;;;1.89;70.79
14269;BME280;7218;51.480;7.006;2023-03-01T03:00:04;101987.63;;;1.78;71.52
14269;BME280;7218;51.480;7.006;2023-03-01T03:02:35;101987.88;;;1.84;71.15
14269;BME280;7218;51.480;7.006;2023-03-01T03:05:07;101984.34;;;1.82;71.16
14269;BME280;7218;51.480;7.006;2023-03-01T03:07:35;101984.34;;;1.82;71.14
14269;BME280;7218;51.480;7.006;2023-03-01T03:10:04;101985.03;;;1.78;71.24
14269;BME280;7218;51.480;7.006;2023-03-01T03:12:31;101986.47;;;1.71;71.65
14269;BME280;7218;51.480;7.006;2023-03-01T03:14:57;101986.53;;;1.72;71.36
14269;BME280;7218;51.480;7.006;2023-03-01T03:17:24;101981.72;;;1.61;71.46
14269;BME280;7218;51.480;7.006;2023-03-01T03:19:51;101973.13;;;1.60;72.27
14269;BME280;7218;51.480;7.006;2023-03-01T03:22:18;101979.72;;;1.54;72.34
14269;BME280;7218;51.480;7.006;2023-03-01T03:24:44;101978.97;;;1.56;71.96
14269;BME280;7218;51.480;7.006;2023-03-01T03:27:11;101977.19;;;1.55;72.01
14269;BME280;7218;51.480;7.006;2023-03-01T03:29:37;101978.03;;;1.54;71.85
14269;BME280;7218;51.480;7.006;2023-03-01T03:32:04;101981.13;;;1.47;72.04
14269;BME280;7218;51.480;7.006;2023-03-01T03:34:30;101973.81;;;1.56;71.58
14269;BME280;7218;51.480;7.006;2023-03-01T03:36:58;101969.63;;;1.58;72.25
14269;BME280;7218;51.480;7.006;2023-03-01T03:39:25;101969.47;;;1.55;72.40
14269;BME280;7218;51.480;7.006;2023-03-01T03:41:52;101964.28;;;1.54;72.40
14269;BME280;7218;51.480;7.006;2023-03-01T03:44:19;101963.66;;;1.40;72.47
14269;BME280;7218;51.480;7.006;2023-03-01T03:46:46;101960.22;;;1.40;72.88
14269;BME280;7218;51.480;7.006;2023-03-01T03:49:12;101965.44;;;1.41;72.88
14269;BME280;7218;51.480;7.006;2023-03-01T03:51:39;101962.06;;;1.42;73.07
14269;BME280;7218;51.480;7.006;2023-03-01T03:54:06;101953.25;;;1.37;72.58
14269;BME280;7218;51.480;7.006;2023-03-01T03:56:33;101953.06;;;1.33;72.67
14269;BME280;7218;51.480;7.006;2023-03-01T03:59:00;101948.63;;;1.30;73.30
14269;BME280;7218;51.480;7.006;2023-03-01T04:01:26;101946.34;;;1.36;73.47
14269;BME280;7218;51.480;7.006;2023-03-01T04:03:52;101940.72;;;1.25;73.38
14269;BME280;7218;51.480;7.006;2023-03-01T04:06:21;101937.75;;;1.16;74.04
14269;BME280;7218;51.480;7.006;2023-03-01T04:08:47;101931.06;;;1.20;74.22
14269;BME280;7218;51.480;7.006;2023-03-01T04:11:17;101928.75;;;1.26;73.96
14269;BME280;7218;51.480;7.006;2023-03-01T04:13:56;101928.72;;;1.24;73.82
14269;BME280;7218;51.480;7.006;2023-03-01T04:16:24;101934.31;;;1.16;73.88
14269;BME280;7218;51.480;7.006;2023-03-01T04:18:50;101939.31;;;1.13;74.23
14269;BME280;7218;51.480;7.006;2023-03-01T04:21:17;101942.69;;;1.12;73.71
14269;BME280;7218;51.480;7.006;2023-03-01T04:23:45;101940.13;;;1.12;74.21
14269;BME280;7218;51.480;7.006;2023-03-01T04:26:12;101938.22;;;1.08;74.53
14269;BME280;7218;51.480;7.006;2023-03-01T04:28:41;101934.66;;;1.04;74.25
14269;BME280;7218;51.480;7.006;2023-03-01T04:31:12;101949.09;;;1.02;74.21
14269;BME280;7218;51.480;7.006;2023-03-01T04:33:44;101945.44;;;0.97;74.69
14269;BME280;7218;51.480;7.006;2023-03-01T04:36:12;101940.31;;;0.97;74.25
14269;BME280;7218;51.480;7.006;2023-03-01T04:38:39;101942.66;;;0.93;74.98
14269;BME280;7218;51.480;7.006;2023-03-01T04:41:06;101944.94;;;1.04;74.33
14269;BME280;7218;51.480;7.006;2023-03-01T04:43:34;101942.94;;;0.99;74.48
14269;BME280;7218;51.480;7.006;2023-03-01T04:46:03;101938.63;;;0.98;74.59
14269;BME280;7218;51.480;7.006;2023-03-01T04:48:31;101939.41;;;0.97;74.61
14269;BME280;7218;51.480;7.006;2023-03-01T04:50:58;101941.66;;;0.89;74.78
14269;BME280;7218;51.480;7.006;2023-03-01T04:53:24;101934.06;;;0.92;75.17
14269;BME280;7218;51.480;7.006;2023-03-01T04:55:51;101933.88;;;0.88;74.76
14269;BME280;7218;51.480;7.006;2023-03-01T04:58:17;101932.91;;;0.85;74.60
14269;BME280;7218;51.480;7.006;2023-03-01T05:00:44;101931.97;;;0.83;75.02
14269;BME280;7218;51.480;7.006;2023-03-01T05:03:11;101934.88;;;0.91;74.79
14269;BME280;7218;51.480;7.006;2023-03-01T05:05:44;101933.59;;;1.01;74.68
14269;BME280;7218;51.480;7.006;2023-03-01T05:08:11;101931.41;;;1.08;74.11
14269;BME280;7218;51.480;7.006;2023-03-01T05:10:44;101936.59;;;1.10;74.19
14269;BME280;7218;51.480;7.006;2023-03-01T05:13:12;101933.00;;;1.06;74.05
14269;BME280;7218;51.480;7.006;2023-03-01T05:15:40;101922.81;;;1.08;74.00
14269;BME280;7218;51.480;7.006;2023-03-01T05:18:07;101925.97;;;1.02;74.68
14269;BME280;7218;51.480;7.006;2023-03-01T05:20:38;101925.19;;;1.03;74.52
14269;BME280;7218;51.480;7.006;2023-03-01T05:23:04;101928.25;;;0.96;74.39
14269;BME280;7218;51.480;7.006;2023-03-01T05:25:34;101922.31;;;0.97;74.29
14269;BME280;7218;51.480;7.006;2023-03-01T05:28:06;101916.09;;;0.92;74.72
14269;BME280;7218;51.480;7.006;2023-03-01T05:30:33;101912.72;;;0.93;74.79
14269;BME280;7218;51.480;7.006;2023-03-01T05:33:00;101912.44;;;0.87;74.67
14269;BME280;7218;51.480;7.006;2023-03-01T05:35:27;101906.59;;;0.90;74.54
14269;BME280;7218;51.480;7.006;2023-03-01T05:37:55;101908.59;;;0.97;74.50
14269;BME280;7218;51.480;7.006;2023-03-01T05:40:23;101904.44;;;0.99;74.51
14269;BME280;7218;51.480;7.006;2023-03-01T05:42:52;101910.38;;;0.98;74.47
14269;BME280;7218;51.480;7.006;2023-03-01T05:45:19;101909.41;;;0.96;74.37
14269;BME280;7218;51.480;7.006;2023-03-01T05:47:48;101908.41;;;0.92;73.94
14269;BME280;7218;51.480;7.006;2023-03-01T05:50:16;101912.56;;;0.90;74.09
14269;BME280;7218;51.480;7.006;2023-03-01T05:52:46;101906.13;;;0.80;74.01
14269;BME280;7218;51.480;7.006;2023-03-01T05:55:16;101911.56;;;0.86;74.25
14269;BME280;7218;51.480;7.006;2023-03-01T05:57:42;101912.81;;;0.77;74.20
14269;BME280;7218;51.480;7.006;2023-03-01T06:00:10;101908.69;;;0.80;74.02
14269;BME280;7218;51.480;7.006;2023-03-01T06:02:37;101920.63;;;0.78;74.27
14269;BME280;7218;51.480;7.006;2023-03-01T06:05:04;101910.75;;;0.88;73.86
14269;BME280;7218;51.480;7.006;2023-03-01T06:07:31;101909.00;;;0.86;74.05
14269;BME280;7218;51.480;7.006;2023-03-01T06:09:57;101915.91;;;0.88;73.93
14269;BME280;7218;51.480;7.006;2023-03-01T06:12:25;101906.84;;;0.96;74.34
14269;BME280;7218;51.480;7.006;2023-03-01T06:14:51;101907.72;;;0.96;73.92
14269;BME280;7218;51.480;7.006;2023-03-01T06:17:18;101897.53;;;0.98;73.54
14269;BME280;7218;51.480;7.006;2023-03-01T06:19:46;101898.41;;;0.98;73.85
14269;BME280;7218;51.480;7.006;2023-03-01T06:22:12;101897.72;;;1.02;73.24
14269;BME280;7218;51.480;7.006;2023-03-01T06:24:39;101900.41;;;1.05;73.08
14269;BME280;7218;51.480;7.006;2023-03-01T06:27:05;101900.28;;;1.02;73.34
14269;BME280;7218;51.480;7.006;2023-03-01T06:29:33;101898.13;;;1.11;73.60
14269;BME280;7218;51.480;7.006;2023-03-01T06:31:59;101896.38;;;1.10;73.33
14269;BME280;7218;51.480;7.006;2023-03-01T06:34:26;101887.38;;;1.20;73.55
14269;BME280;7218;51.480;7.006;2023-03-01T06:36:52;101888.13;;;1.17;72.94
14269;BME280;7218;51.480;7.006;2023-03-01T06:39:19;101895.50;;;1.29;73.10
14269;BME280;7218;51.480;7.006;2023-03-01T06:41:45;101885.69;;;1.40;72.54
14269;BME280;7218;51.480;7.006;2023-03-01T06:44:12;101884.94;;;1.42;72.35
14269;BME280;7218;51.480;7.006;2023-03-01T06:46:40;101893.66;;;1.46;71.95
14269;BME280;7218;51.480;7.006;2023-03-01T06:49:06;101910.19;;;1.32;72.44
14269;BME280;7218;51.480;7.006;2023-03-01T06:51:35;101899.22;;;1.36;72.75
14269;BME280;7218;51.480;7.006;2023-03-01T06:54:01;101900.09;;;1.36;72.24
14269;BME280;7218;51.480;7.006;2023-03-01T06:56:27;101896.41;;;1.50;72.22
14269;BME280;7218;51.480;7.006;2023-03-01T06:58:54;101889.75;;;1.54;71.88
14269;BME280;7218;51.480;7.006;2023-03-01T07:01:20;101892.13;;;1.49;71.13
14269;BME280;7218;51.480;7.006;2023-03-01T07:03:48;101894.13;;;1.56;71.36
14269;BME280;7218;51.480;7.006;2023-03-01T07:06:15;101894.03;;;1.55;71.45
14269;BME280;7218;51.480;7.006;2023-03-01T07:08:41;101888.09;;;1.56;71.64
14269;BME280;7218;51.480;7.006;2023-03-01T07:11:07;101896.19;;;1.65;71.45
14269;BME280;7218;51.480;7.006;2023-03-01T07:13:34;101894.47;;;1.64;70.85
14269;BME280;7218;51.480;7.006;2023-03-01T07:16:00;101894.28;;;1.59;71.24
14269;BME280;7218;51.480;7.006;2023-03-01T07:18:27;101891.00;;;1.63;71.78
14269;BME280;7218;51.480;7.006;2023-03-01T07:20:55;101881.22;;;1.76;71.56
14269;BME280;7218;51.480;7.006;2023-03-01T07:23:21;101886.50;;;1.79;71.17
14269;BME280;7218;51.480;7.006;2023-03-01T07:25:51;101886.91;;;1.88;71.35
14269;BME280;7218;51.480;7.006;2023-03-01T07:28:18;101887.63;;;1.85;70.76
14269;BME280;7218;51.480;7.006;2023-03-01T07:30:44;101883.63;;;1.92;70.54
14269;BME280;7218;51.480;7.006;2023-03-01T07:33:11;101873.34;;;1.92;70.96
14269;BME280;7218;51.480;7.006;2023-03-01T07:35:37;101876.16;;;1.98;70.68
14269;BME280;7218;51.480;7.006;2023-03-01T07:38:05;101879.34;;;2.13;69.76
14269;BME280;7218;51.480;7.006;2023-03-01T07:40:31;101883.44;;;2.08;69.46
14269;BME280;7218;51.480;7.006;2023-03-01T07:42:59;101874.31;;;2.16;69.25
14269;BME280;7218;51.480;7.006;2023-03-01T07:45:29;101871.31;;;2.26;68.92
14269;BME280;7218;51.480;7.006;2023-03-01T07:47:55;101875.72;;;2.29;69.03
14269;BME280;7218;51.480;7.006;2023-03-01T07:50:22;101879.81;;;2.46;68.40
14269;BME280;7218;51.480;7.006;2023-03-01T07:52:49;101872.16;;;2.47;67.55
14269;BME280;7218;51.480;7.006;2023-03-01T07:55:17;101877.56;;;2.55;67.07
14269;BME280;7218;51.480;7.006;2023-03-01T07:57:44;101875.00;;;2.55;67.29
14269;BME280;7218;51.480;7.006;2023-03-01T08:00:12;101868.88;;;2.74;67.45
14269;BME280;7218;51.480;7.006;2023-03-01T08:02:39;101882.50;;;2.71;65.96
14269;BME280;7218;51.480;7.006;2023-03-01T08:05:07;101881.56;;;2.91;66.17
14269;BME280;7218;51.480;7.006;2023-03-01T08:07:33;101872.53;;;2.80;65.28
14269;BME280;7218;51.480;7.006;2023-03-01T08:10:00;101884.53;;;3.02;63.63
14269;BME280;7218;51.480;7.006;2023-03-01T08:12:28;101876.41;;;3.15;63.03
14269;BME280;7218;51.480;7.006;2023-03-01T08:14:54;101883.44;;;3.19;63.00
14269;BME280;7218;51.480;7.006;2023-03-01T08:17:22;101871.22;;;3.37;62.32
14269;BME280;7218;51.480;7.006;2023-03-01T08:19:48;101876.38;;;3.37;62.00
14269;BME280;7218;51.480;7.006;2023-03-01T08:22:15;101872.34;;;3.45;61.53
14269;BME280;7218;51.480;7.006;2023-03-01T08:24:41;101868.38;;;3.55;61.47
14269;BME280;7218;51.480;7.006;2023-03-01T08:27:08;101867.28;;;3.74;60.90
14269;BME280;7218;51.480;7.006;2023-03-01T08:29:36;101866.53;;;4.02;59.76
14269;BME280;7218;51.480;7.006;2023-03-01T08:32:03;101869.59;;;4.17;59.88
14269;BME280;7218;51.480;7.006;2023-03-01T08:34:29;101866.34;;;4.22;57.95
14269;BME280;7218;51.480;7.006;2023-03-01T08:36:56;101857.91;;;4.56;56.90
14269;BME280;7218;51.480;7.006;2023-03-01T08:39:23;101863.53;;;4.71;56.50
14269;BME280;7218;51.480;7.006;2023-03-01T08:41:49;101863.00;;;4.82;55.12
14269;BME280;7218;51.480;7.006;2023-03-01T08:44:16;101847.03;;;4.96;54.87
14269;BME280;7218;51.480;7.006;2023-03-01T08:46:44;101851.50;;;5.33;54.23
14269;BME280;7218;51.480;7.006;2023-03-01T08:49:14;101850.78;;;5.39;51.69
14269;BME280;7218;51.480;7.006;2023-03-01T08:51:41;101848.09;;;5.34;53.16
14269;BME280;7218;51.480;7.006;2023-03-01T08:54:12;101845.47;;;5.66;52.38
14269;BME280;7218;51.480;7.006;2023-03-01T08:56:40;101846.22;;;5.94;51.76
14269;BME280;7218;51.480;7.006;2023-03-01T08:59:06;101844.53;;;6.31;50.28
14269;BME280;7218;51.480;7.006;2023-03-01T09:01:33;101835.63;;;6.59;48.96
14269;BME280;7218;51.480;7.006;2023-03-01T09:04:01;101830.56;;;6.63;48.99
14269;BME280;7218;51.480;7.006;2023-03-01T09:06:30;101830.34;;;6.95;47.68
14269;BME280;7218;51.480;7.006;2023-03-01T09:08:57;101827.00;;;7.00;46.79
14269;BME280;7218;51.480;7.006;2023-03-01T09:11:23;101833.25;;;7.10;45.89
14269;BME280;7218;51.480;7.006;2023-03-01T09:13:50;101829.19;;;7.24;46.64
14269;BME280;7218;51.480;7.006;2023-03-01T09:16:18;101833.03;;;7.44;44.45
14269;BME280;7218;51.480;7.006;2023-03-01T09:18:48;101826.38;;;7.58;44.76
14269;BME280;7218;51.480;7.006;2023-03-01T09:21:16;101831.06;;;7.79;44.17
14269;BME280;7218;51.480;7.006;2023-03-01T09:23:45;101822.72;;;7.97;42.68
14269;BME280;7218;51.480;7.006;2023-03-01T09:26:14;101822.97;;;8.15;43.58
14269;BME280;7218;51.480;7.006;2023-03-01T09:28:42;101816.97;;;8.19;42.32
14269;BME280;7218;51.480;7.006;2023-03-01T09:31:09;101806.28;;;8.56;42.42
14269;BME280;7218;51.480;7.006;2023-03-01T09:33:38;101822.63;;;8.48;41.50
14269;BME280;7218;51.480;7.006;2023-03-01T09:36:07;101807.28;;;8.66;41.66
14269;BME280;7218;51.480;7.006;2023-03-01T09:38:35;101805.88;;;8.94;41.38
14269;BME280;7218;51.480;7.006;2023-03-01T09:41:08;101795.66;;;9.12;40.21
14269;BME280;7218;51.480;7.006;2023-03-01T09:43:41;101790.69;;;9.33;39.96
14269;BME280;7218;51.480;7.006;2023-03-01T09:46:11;101793.38;;;9.42;39.82
14269;BME280;7218;51.480;7.006;2023-03-01T09:48:43;101795.66;;;9.12;39.26
14269;BME280;7218;51.480;7.006;2023-03-01T09:51:16;101792.72;;;9.63;39.60
14269;BME280;7218;51.480;7.006;2023-03-01T09:53:45;101797.81;;;9.51;37.86
14269;BME280;7218;51.480;7.006;2023-03-01T09:56:17;101794.50;;;9.66;38.65
14269;BME280;7218;51.480;7.006;2023-03-01T09:58:50;101793.13;;;10.15;37.95
14269;BME280;7218;51.480;7.006;2023-03-01T10:01:27;101785.50;;;10.44;37.69
14269;BME280;7218;51.480;7.006;2023-03-01T10:04:13;101786.63;;;11.12;36.81
14269;BME280;7218;51.480;7.006;2023-03-01T10:07:16;101779.78;;;11.80;35.30
14269;BME280;7218;51.480;7.006;2023-03-01T10:09:46;101769.16;;;12.51;33.65
14269;BME280;7218;51.480;7.006;2023-03-01T10:12:16;101769.09;;;12.72;33.29
14269;BME280;7218;51.480;7.006;2023-03-01T10:14:50;101758.25;;;13.39;32.85
14269;BME280;7218;51.480;7.006;2023-03-01T10:17:25;101762.13;;;13.98;31.70
14269;BME280;7218;51.480;7.006;2023-03-01T10:19:55;101765.13;;;13.51;31.75
14269;BME280;7218;51.480;7.006;2023-03-01T10:22:25;101755.31;;;13.77;30.68
14269;BME280;7218;51.480;7.006;2023-03-01T10:24:56;101763.88;;;13.99;30.01
14269;BME280;7218;51.480;7.006;2023-03-01T10:27:24;101748.28;;;14.64;30.02
14269;BME280;7218;51.480;7.006;2023-03-01T10:29:57;101746.88;;;13.43;29.18
14269;BME280;7218;51.480;7.006;2023-03-01T10:32:27;101746.25;;;14.10;28.43
14269;BME280;7218;51.480;7.006;2023-03-01T10:34:53;101762.88;;;14.87;28.67
14269;BME280;7218;51.480;7.006;2023-03-01T10:37:21;101758.72;;;15.32;28.28
14269;BME280;7218;51.480;7.006;2023-03-01T10:40:02;101753.28;;;14.08;28.17
14269;BME280;7218;51.480;7.006;2023-03-01T10:42:33;101742.34;;;15.70;27.75
14269;BME280;7218;51.480;7.006;2023-03-01T10:45:17;101733.53;;;16.21;27.25
14269;BME280;7218;51.480;7.006;2023-03-01T10:48:03;101733.38;;;16.73;26.57
14269;BME280;7218;51.480;7.006;2023-03-01T10:50:30;101734.03;;;16.83;26.55
14269;BME280;7218;51.480;7.006;2023-03-01T10:52:58;101727.66;;;17.30;25.98
14269;BME280;7218;51.480;7.006;2023-03-01T10:55:32;101717.91;;;17.69;25.26
14269;BME280;7218;51.480;7.006;2023-03-01T10:58:11;101716.13;;;18.34;24.69
14269;BME280;7218;51.480;7.006;2023-03-01T11:00:48;101700.63;;;17.91;24.20
14269;BME280;7218;51.480;7.006;2023-03-01T11:03:18;101702.06;;;18.65;24.49
14269;BME280;7218;51.480;7.006;2023-03-01T11:05:55;101698.88;;;18.23;24.58
14269;BME280;7218;51.480;7.006;2023-03-01T11:08:46;101692.78;;;18.81;24.22
14269;BME280;7218;51.480;7.006;2023-03-01T11:11:33;101687.03;;;19.22;23.91
14269;BME280;7218;51.480;7.006;2023-03-01T11:14:03;101687.28;;;19.15;23.37
14269;BME280;7218;51.480;7.006;2023-03-01T11:16:34;101692.69;;;19.12;22.93
14269;BME280;7218;51.480;7.006;2023-03-01T11:19:14;101673.28;;;20.13;23.50
14269;BME280;7218;51.480;7.006;2023-03-01T11:21:46;101671.38;;;20.42;22.41
14269;BME280;7218;51.480;7.006;2023-03-01T11:24:15;101659.94;;;20.16;22.88
14269;BME280;7218;51.480;7.006;2023-03-01T11:26:46;101667.56;;;20.49;22.62
14269;BME280;7218;51.480;7.006;2023-03-01T11:29:27;101660.25;;;20.55;21.94
14269;BME280;7218;51.480;7.006;2023-03-01T11:31:56;101652.84;;;20.63;21.81
14269;BME280;7218;51.480;7.006;2023-03-01T11:34:32;101654.47;;;20.89;21.55
14269;BME280;7218;51.480;7.006;2023-03-01T11:37:01;101659.56;;;20.50;21.18
14269;BME280;7218;51.480;7.006;2023-03-01T11:39:38;101660.22;;;21.22;21.04
14269;BME280;7218;51.480;7.006;2023-03-01T11:42:18;101669.03;;;21.65;21.03
14269;BME280;7218;51.480;7.006;2023-03-01T11:44:48;101670.47;;;21.72;19.89
14269;BME280;7218;51.480;7.006;2023-03-01T11:47:25;101681.44;;;21.44;20.53
14269;BME280;7218;51.480;7.006;2023-03-01T11:50:16;101672.59;;;22.24;20.32
14269;BME280;7218;51.480;7.006;2023-03-01T11:52:58;101672.88;;;21.58;20.51
14269;BME280;7218;51.480;7.006;2023-03-01T11:55:44;101660.00;;;22.09;20.31
14269;BME280;7218;51.480;7.006;2023-03-01T11:58:27;101667.50;;;22.20;20.20
14269;BME280;7218;51.480;7.006;2023-03-01T12:01:12;101656.09;;;21.98;20.17
14269;BME280;7218;51.480;7.006;2023-03-01T12:03:55;101668.84;;;22.28;19.81
14269;BME280;7218;51.480;7.006;2023-03-01T12:06:34;101668.66;;;21.94;19.91
14269;BME280;7218;51.480;7.006;2023-03-01T12:09:17;101675.41;;;22.21;19.96
14269;BME280;7218;51.480;7.006;2023-03-01T12:11:59;101675.38;;;23.15;19.32
14269;BME280;7218;51.480;7.006;2023-03-01T12:14:43;101662.50;;;23.76;18.41
14269;BME280;7218;51.480;7.006;2023-03-01T12:20:21;101660.03;;;23.37;19.13
14269;BME280;7218;51.480;7.006;2023-03-01T12:23:02;101644.94;;;23.38;18.70
14269;BME280;7218;51.480;7.006;2023-03-01T12:25:39;101643.84;;;23.25;19.72
14269;BME280;7218;51.480;7.006;2023-03-01T12:28:19;101636.84;;;23.22;19.56
14269;BME280;7218;51.480;7.006;2023-03-01T12:31:05;101629.00;;;23.55;19.34
14269;BME280;7218;51.480;7.006;2023-03-01T12:33:43;101623.91;;;24.33;18.52
14269;BME280;7218;51.480;7.006;2023-03-01T12:36:25;101620.03;;;23.90;18.50
14269;BME280;7218;51.480;7.006;2023-03-01T12:39:03;101617.34;;;24.86;18.43
14269;BME280;7218;51.480;7.006;2023-03-01T12:41:45;101612.66;;;24.44;18.73
14269;BME280;7218;51.480;7.006;2023-03-01T12:44:28;101614.69;;;25.02;17.96
14269;BME280;7218;51.480;7.006;2023-03-01T12:47:07;101603.44;;;25.11;17.70
14269;BME280;7218;51.480;7.006;2023-03-01T12:49:39;101599.88;;;25.26;17.86
14269;BME280;7218;51.480;7.006;2023-03-01T12:52:12;101601.63;;;25.41;17.91
14269;BME280;7218;51.480;7.006;2023-03-01T12:54:41;101594.94;;;25.20;17.35
14269;BME280;7218;51.480;7.006;2023-03-01T12:57:12;101600.91;;;24.78;17.18
14269;BME280;7218;51.480;7.006;2023-03-01T12:59:47;101601.19;;;24.89;17.78
14269;BME280;7218;51.480;7.006;2023-03-01T13:02:23;101596.44;;;25.10;17.66
14269;BME280;7218;51.480;7.006;2023-03-01T13:04:58;101597.31;;;24.79;17.61
14269;BME280;7218;51.480;7.006;2023-03-01T13:07:33;101601.59;;;24.81;17.62
14269;BME280;7218;51.480;7.006;2023-03-01T13:10:19;101595.78;;;24.91;17.96
14269;BME280;7218;51.480;7.006;2023-03-01T13:12:53;101588.47;;;25.38;17.24
14269;BME280;7218;51.480;7.006;2023-03-01T13:15:28;101585.72;;;25.40;17.47
14269;BME280;7218;51.480;7.006;2023-03-01T13:17:58;101587.56;;;25.53;16.78
14269;BME280;7218;51.480;7.006;2023-03-01T13:20:29;101582.63;;;26.32;17.46
14269;BME280;7218;51.480;7.006;2023-03-01T13:23:12;101581.28;;;25.97;17.46
14269;BME280;7218;51.480;7.006;2023-03-01T13:26:08;101579.38;;;26.13;17.12